createdAt,value
2022-10-15T00:00:22.490Z,17.57
2022-10-15T00:02:50.446Z,16.60
2022-10-15T00:05:17.892Z,17.97
2022-10-15T00:07:45.224Z,17.93
2022-10-15T00:10:12.699Z,17.53
2022-10-15T00:12:40.659Z,20.53
2022-10-15T00:15:10.166Z,19.73
2022-10-15T00:17:39.677Z,18.30
2022-10-15T00:20:11.011Z,20.27
2022-10-15T00:22:39.170Z,16.13
2022-10-15T00:25:08.437Z,18.27
2022-10-15T00:27:37.366Z,20.00
2022-10-15T00:30:07.063Z,20.83
2022-10-15T00:32:34.479Z,19.60
2022-10-15T00:35:03.360Z,19.97
2022-10-15T00:37:30.648Z,19.37
2022-10-15T00:39:57.975Z,20.43
2022-10-15T00:42:25.494Z,19.43
2022-10-15T00:44:56.730Z,21.17
2022-10-15T00:47:30.506Z,19.73
2022-10-15T00:50:08.662Z,21.70
2022-10-15T00:52:43.982Z,19.60
2022-10-15T00:55:16.978Z,22.07
2022-10-15T00:57:47.961Z,20.73
2022-10-15T01:00:17.417Z,22.03
2022-10-15T01:02:46.578Z,22.43
2022-10-15T01:05:18.244Z,21.93
2022-10-15T01:07:45.547Z,21.07
2022-10-15T01:10:13.810Z,21.77
2022-10-15T01:12:57.262Z,23.43
2022-10-15T01:15:33.659Z,23.17
2022-10-15T01:18:10.789Z,23.67
2022-10-15T01:20:52.953Z,24.93
2022-10-15T01:24:37.529Z,24.70
2022-10-15T01:27:26.438Z,25.83
2022-10-15T01:30:21.980Z,24.30
2022-10-15T01:33:35.046Z,24.80
2022-10-15T01:36:17.663Z,19.67
2022-10-15T01:38:55.807Z,24.90
2022-10-15T01:41:37.614Z,25.30
2022-10-15T01:44:11.915Z,25.77
2022-10-15T01:46:47.722Z,21.40
2022-10-15T01:49:26.137Z,27.07
2022-10-15T01:51:55.806Z,26.87
2022-10-15T01:54:27.834Z,27.00
2022-10-15T01:56:58.201Z,26.40
2022-10-15T01:59:31.225Z,27.53
2022-10-15T02:01:59.964Z,25.47
2022-10-15T02:04:30.002Z,24.90
2022-10-15T02:07:04.420Z,28.63
2022-10-15T02:09:44.226Z,26.97
2022-10-15T02:12:30.768Z,26.33
2022-10-15T02:15:06.503Z,23.90
2022-10-15T02:17:45.335Z,29.00
2022-10-15T02:20:19.943Z,27.53
2022-10-15T02:22:55.639Z,25.80
2022-10-15T02:25:25.875Z,27.93
2022-10-15T02:27:57.134Z,27.70
2022-10-15T02:30:26.737Z,25.93
2022-10-15T02:32:59.458Z,24.87
2022-10-15T02:35:28.232Z,29.67
2022-10-15T02:38:03.070Z,29.03
2022-10-15T02:40:35.889Z,27.03
2022-10-15T02:43:08.898Z,25.03
2022-10-15T02:45:36.850Z,27.73
2022-10-15T02:48:07.481Z,29.50
2022-10-15T02:50:34.821Z,27.83
2022-10-15T02:53:02.387Z,29.23
2022-10-15T02:55:29.807Z,27.73
2022-10-15T02:57:57.177Z,30.13
2022-10-15T03:00:24.934Z,27.80
2022-10-15T03:02:52.190Z,28.73
2022-10-15T03:05:20.945Z,29.87
2022-10-15T03:07:48.196Z,30.43
2022-10-15T03:10:15.621Z,27.00
2022-10-15T03:12:42.840Z,27.17
2022-10-15T03:15:10.685Z,26.23
2022-10-15T03:17:38.057Z,26.30
2022-10-15T03:20:06.410Z,23.77
2022-10-15T03:22:35.022Z,26.23
2022-10-15T03:25:02.471Z,28.93
2022-10-15T03:27:29.729Z,24.73
2022-10-15T03:29:57.108Z,26.60
2022-10-15T03:32:24.432Z,25.27
2022-10-15T03:34:51.727Z,26.27
2022-10-15T03:37:18.990Z,27.07
2022-10-15T03:39:48.083Z,25.87
2022-10-15T03:42:15.422Z,25.43
2022-10-15T03:44:42.696Z,22.20
2022-10-15T03:47:10.031Z,25.07
2022-10-15T03:49:37.304Z,23.17
2022-10-15T03:52:04.922Z,22.73
2022-10-15T03:54:32.160Z,25.00
2022-10-15T03:57:01.441Z,25.23
2022-10-15T03:59:29.084Z,26.03
2022-10-15T04:01:56.300Z,24.60
2022-10-15T04:04:23.582Z,22.30
2022-10-15T04:06:50.862Z,25.27
2022-10-15T04:09:18.158Z,23.80
2022-10-15T04:11:45.777Z,25.70
2022-10-15T04:14:14.403Z,25.47
2022-10-15T04:16:44.151Z,23.03
2022-10-15T04:19:11.521Z,25.23
2022-10-15T04:21:38.807Z,26.53
2022-10-15T04:24:06.405Z,24.57
2022-10-15T04:26:36.545Z,24.03
2022-10-15T04:29:03.973Z,24.50
2022-10-15T04:31:33.424Z,24.53
2022-10-15T04:34:00.767Z,24.80
2022-10-15T04:36:28.067Z,23.30
2022-10-15T04:38:55.493Z,26.83
2022-10-15T04:41:22.911Z,24.23
2022-10-15T04:43:50.120Z,27.97
2022-10-15T04:46:17.476Z,29.80
2022-10-15T04:48:46.055Z,27.10
2022-10-15T04:51:16.383Z,26.97
2022-10-15T04:53:44.397Z,27.00
2022-10-15T04:56:15.621Z,26.10
2022-10-15T04:58:45.052Z,24.87
2022-10-15T05:01:14.570Z,24.87
2022-10-15T05:03:45.266Z,20.97
2022-10-15T05:06:17.067Z,23.57
2022-10-15T05:08:45.155Z,22.50
2022-10-15T05:11:16.215Z,26.27
2022-10-15T05:13:43.731Z,21.77
2022-10-15T05:16:16.379Z,23.90
2022-10-15T05:18:47.650Z,27.17
2022-10-15T05:21:18.303Z,26.40
2022-10-15T05:23:47.161Z,27.00
2022-10-15T05:26:20.271Z,25.50
2022-10-15T05:28:48.093Z,26.30
2022-10-15T05:31:19.254Z,28.23
2022-10-15T05:33:47.032Z,27.07
2022-10-15T05:36:19.365Z,26.30
2022-10-15T05:38:48.774Z,27.00
2022-10-15T05:41:16.482Z,27.20
2022-10-15T05:43:46.438Z,29.97
2022-10-15T05:46:13.823Z,27.67
2022-10-15T05:48:41.112Z,29.00
2022-10-15T05:51:12.887Z,29.43
2022-10-15T05:53:43.228Z,28.07
2022-10-15T05:56:10.574Z,29.27
2022-10-15T05:58:37.992Z,30.53
2022-10-15T06:01:08.134Z,28.53
2022-10-15T06:03:36.189Z,28.47
2022-10-15T06:06:04.389Z,28.23
2022-10-15T06:08:32.287Z,29.40
2022-10-15T06:11:08.383Z,29.33
2022-10-15T06:13:39.380Z,31.13
2022-10-15T06:16:07.859Z,32.20
2022-10-15T06:18:35.920Z,29.53
2022-10-15T06:21:03.229Z,28.73
2022-10-15T06:23:30.726Z,29.57
2022-10-15T06:26:04.027Z,29.23
2022-10-15T06:28:31.877Z,29.37
2022-10-15T06:31:00.364Z,29.83
2022-10-15T06:33:28.751Z,30.77
2022-10-15T06:36:00.158Z,32.67
2022-10-15T06:38:27.427Z,29.67
2022-10-15T06:40:54.682Z,30.10
2022-10-15T06:43:23.780Z,30.57
2022-10-15T06:45:51.079Z,31.57
2022-10-15T06:48:18.557Z,30.60
2022-10-15T06:50:45.956Z,30.73
2022-10-15T06:53:13.269Z,30.00
2022-10-15T06:55:40.562Z,31.07
2022-10-15T06:58:07.865Z,29.97
2022-10-15T07:00:36.550Z,31.83
2022-10-15T07:03:05.114Z,29.83
2022-10-15T07:05:33.022Z,31.43
2022-10-15T07:08:00.997Z,30.53
2022-10-15T07:10:29.063Z,32.23
2022-10-15T07:12:56.495Z,32.23
2022-10-15T07:15:23.847Z,29.53
2022-10-15T07:18:01.378Z,31.67
2022-10-15T07:20:30.957Z,30.17
2022-10-15T07:22:59.204Z,31.27
2022-10-15T07:25:28.097Z,30.23
2022-10-15T07:27:56.251Z,29.03
2022-10-15T07:30:27.420Z,31.60
2022-10-15T07:32:57.934Z,30.47
2022-10-15T07:35:26.069Z,30.67
2022-10-15T07:37:53.579Z,31.30
2022-10-15T07:40:21.229Z,30.63
2022-10-15T07:42:54.227Z,32.23
2022-10-15T07:45:21.479Z,32.37
2022-10-15T07:47:48.763Z,30.57
2022-10-15T07:50:17.863Z,32.20
2022-10-15T07:52:45.521Z,31.23
2022-10-15T07:55:13.220Z,31.17
2022-10-15T07:57:40.773Z,28.60
2022-10-15T08:00:10.077Z,30.37
2022-10-15T08:02:37.378Z,29.93
2022-10-15T08:05:05.463Z,30.03
2022-10-15T08:07:34.071Z,30.77
2022-10-15T08:10:01.458Z,28.57
2022-10-15T08:12:28.730Z,28.40
2022-10-15T08:14:56.017Z,28.70
2022-10-15T08:17:23.303Z,28.13
2022-10-15T08:19:50.609Z,27.50
2022-10-15T08:22:17.931Z,28.60
2022-10-15T08:24:46.661Z,26.93
2022-10-15T08:27:14.238Z,27.80
2022-10-15T08:29:41.456Z,27.47
2022-10-15T08:32:08.675Z,28.17
2022-10-15T08:34:35.953Z,29.37
2022-10-15T08:37:03.633Z,25.07
2022-10-15T08:39:31.230Z,21.97
2022-10-15T08:42:05.861Z,21.73
2022-10-15T08:44:43.557Z,21.17
2022-10-15T08:47:27.066Z,22.93
2022-10-15T08:49:58.425Z,22.17
2022-10-15T08:52:39.286Z,22.07
2022-10-15T08:55:10.056Z,20.67
2022-10-15T08:57:46.576Z,20.90
2022-10-15T09:00:19.929Z,19.53
2022-10-15T09:02:58.209Z,20.77
2022-10-15T09:05:38.081Z,19.47
2022-10-15T09:08:27.637Z,19.00
2022-10-15T09:11:02.582Z,18.00
2022-10-15T09:13:40.273Z,17.93
2022-10-15T09:16:16.608Z,18.90
2022-10-15T09:18:49.915Z,18.67
2022-10-15T09:21:17.516Z,18.23
2022-10-15T09:23:45.335Z,17.87
2022-10-15T09:26:27.068Z,17.07
2022-10-15T09:29:06.731Z,18.03
2022-10-15T09:31:46.639Z,17.80
2022-10-15T09:34:27.552Z,17.50
2022-10-15T09:37:02.246Z,16.67
2022-10-15T09:39:48.016Z,16.67
2022-10-15T09:42:30.671Z,17.20
2022-10-15T09:45:04.408Z,16.53
2022-10-15T09:47:34.620Z,15.23
2022-10-15T09:50:04.973Z,16.77
2022-10-15T09:53:00.499Z,17.50
2022-10-15T09:55:41.131Z,17.90
2022-10-15T09:58:18.141Z,17.50
2022-10-15T10:01:00.995Z,17.13
2022-10-15T10:03:31.156Z,15.30
2022-10-15T10:06:06.329Z,17.27
2022-10-15T10:08:39.246Z,15.60
2022-10-15T10:11:11.080Z,15.37
2022-10-15T10:13:44.975Z,15.73
2022-10-15T10:16:17.741Z,16.87
2022-10-15T10:19:03.107Z,17.13
2022-10-15T10:21:33.968Z,18.77
2022-10-15T10:24:21.710Z,17.57
2022-10-15T10:26:49.236Z,15.43
2022-10-15T10:29:33.547Z,18.60
2022-10-15T10:32:18.224Z,17.47
2022-10-15T10:34:50.174Z,18.20
2022-10-15T10:37:20.529Z,18.43
2022-10-15T10:39:53.945Z,18.43
2022-10-15T10:42:35.354Z,21.27
2022-10-15T10:45:23.117Z,19.90
2022-10-15T10:47:51.866Z,19.73
2022-10-15T10:50:35.351Z,20.40
2022-10-15T10:53:22.059Z,19.60
2022-10-15T10:55:51.924Z,20.87
2022-10-15T10:58:26.277Z,19.07
2022-10-15T11:00:58.166Z,20.37
2022-10-15T11:03:37.341Z,19.67
2022-10-15T11:06:24.448Z,19.30
2022-10-15T11:09:08.438Z,22.27
2022-10-15T11:12:00.872Z,22.07
2022-10-15T11:14:45.121Z,23.20
2022-10-15T11:17:27.742Z,24.40
2022-10-15T11:23:15.623Z,25.90
2022-10-15T11:25:57.754Z,28.57
2022-10-15T11:28:48.755Z,30.43
2022-10-15T11:31:29.583Z,27.17
2022-10-15T11:34:21.684Z,28.80
2022-10-15T11:37:25.195Z,30.57
2022-10-15T11:40:13.864Z,28.63
2022-10-15T11:42:55.836Z,29.90
2022-10-15T11:46:00.147Z,27.33
2022-10-15T11:48:46.247Z,25.73
2022-10-15T11:51:29.027Z,25.07
2022-10-15T11:54:23.214Z,24.60
2022-10-15T11:56:54.178Z,21.47
2022-10-15T11:59:35.840Z,20.63
2022-10-15T12:02:11.818Z,19.90
2022-10-15T12:04:44.164Z,16.07
2022-10-15T12:07:18.499Z,13.77
2022-10-15T12:09:52.352Z,12.13
2022-10-15T12:12:35.905Z,12.90
2022-10-15T12:15:24.246Z,10.50
2022-10-15T12:18:01.123Z,11.63
2022-10-15T12:20:29.028Z,10.43
2022-10-15T12:23:00.423Z,11.80
2022-10-15T12:25:45.252Z,12.17
2022-10-15T12:28:23.235Z,12.80
2022-10-15T12:31:00.363Z,12.93
2022-10-15T12:33:39.252Z,11.63
2022-10-15T12:36:25.056Z,12.00
2022-10-15T12:38:59.083Z,13.60
2022-10-15T12:41:40.413Z,12.67
2022-10-15T12:44:20.338Z,12.93
2022-10-15T12:46:48.331Z,12.43
2022-10-15T12:49:56.687Z,13.77
2022-10-15T12:53:01.246Z,14.10
2022-10-15T12:55:33.932Z,14.00
2022-10-15T12:58:26.543Z,14.03
2022-10-15T13:00:53.910Z,14.77
2022-10-15T13:03:41.687Z,15.67
2022-10-15T13:06:26.965Z,14.03
2022-10-15T13:09:02.852Z,15.13
2022-10-15T13:11:35.497Z,15.30
2022-10-15T13:14:26.861Z,13.47
2022-10-15T13:16:56.015Z,15.27
2022-10-15T13:19:28.077Z,14.97
2022-10-15T13:21:58.975Z,14.47
2022-10-15T13:24:29.919Z,14.73
2022-10-15T13:27:00.610Z,14.73
2022-10-15T13:29:29.530Z,14.20
2022-10-15T13:31:57.976Z,14.40
2022-10-15T13:34:30.193Z,15.00
2022-10-15T13:37:01.714Z,13.93
2022-10-15T13:39:35.481Z,14.73
2022-10-15T13:42:10.145Z,16.23
2022-10-15T13:44:39.182Z,14.43
2022-10-15T13:47:27.044Z,15.13
2022-10-15T13:50:22.975Z,14.63
2022-10-15T13:52:56.958Z,14.87
2022-10-15T13:55:28.481Z,15.80
2022-10-15T13:58:02.052Z,15.37
2022-10-15T14:00:36.401Z,18.17
2022-10-15T14:03:23.965Z,17.23
2022-10-15T14:05:55.037Z,18.30
2022-10-15T14:08:28.696Z,17.93
2022-10-15T14:10:59.737Z,18.57
2022-10-15T14:13:28.334Z,19.10
2022-10-15T14:16:14.333Z,18.10
2022-10-15T14:18:49.006Z,19.33
2022-10-15T14:21:20.431Z,18.83
2022-10-15T14:23:49.899Z,19.03
2022-10-15T14:26:24.731Z,19.13
2022-10-15T14:28:52.796Z,19.07
2022-10-15T14:31:37.204Z,17.50
2022-10-15T14:34:05.261Z,17.57
2022-10-15T14:36:42.034Z,17.47
2022-10-15T14:39:29.391Z,16.80
2022-10-15T14:42:02.354Z,16.23
2022-10-15T14:44:44.868Z,16.47
2022-10-15T14:47:22.883Z,15.97
2022-10-15T14:49:55.135Z,17.70
2022-10-15T14:52:23.106Z,17.10
2022-10-15T14:55:07.205Z,16.27
2022-10-15T14:57:40.161Z,17.03
2022-10-15T15:03:17.441Z,17.53
2022-10-15T15:05:47.993Z,16.07
2022-10-15T15:08:15.592Z,14.13
2022-10-15T15:10:44.640Z,15.77
2022-10-15T15:13:16.799Z,15.73
2022-10-15T15:15:44.104Z,15.40
2022-10-15T15:18:13.656Z,14.20
2022-10-15T15:20:43.774Z,16.33
2022-10-15T15:23:17.866Z,15.37
2022-10-15T15:25:46.347Z,13.97
2022-10-15T15:28:15.736Z,14.17
2022-10-15T15:30:45.157Z,14.80
2022-10-15T15:33:16.101Z,14.10
2022-10-15T15:35:51.933Z,11.60
2022-10-15T15:38:20.865Z,11.33
2022-10-15T15:40:49.275Z,10.20
2022-10-15T15:43:19.143Z,10.13
2022-10-15T15:45:47.621Z,9.97
2022-10-15T15:48:17.087Z,8.37
2022-10-15T15:50:44.502Z,8.80
2022-10-15T15:53:13.008Z,8.10
2022-10-15T15:55:40.404Z,8.80
2022-10-15T15:58:07.800Z,7.70
2022-10-15T16:00:35.096Z,7.20
2022-10-15T16:03:02.434Z,6.63
2022-10-15T16:05:31.087Z,6.37
2022-10-15T16:07:58.362Z,6.80
2022-10-15T16:10:25.890Z,5.40
2022-10-15T16:12:53.244Z,5.07
2022-10-15T16:15:21.082Z,5.17
2022-10-15T16:17:48.437Z,4.40
2022-10-15T16:20:16.059Z,4.97
2022-10-15T16:22:44.734Z,4.83
2022-10-15T16:25:12.098Z,5.07
2022-10-15T16:27:39.420Z,6.03
2022-10-15T16:30:08.274Z,4.63
2022-10-15T16:32:35.531Z,4.00
2022-10-15T16:35:02.816Z,3.80
2022-10-15T16:37:30.071Z,3.03
2022-10-15T16:39:58.704Z,3.73
2022-10-15T16:42:26.058Z,3.37
2022-10-15T16:44:53.344Z,3.13
2022-10-15T16:47:23.838Z,4.07
2022-10-15T16:49:51.357Z,3.60
2022-10-15T16:52:18.658Z,4.27
2022-10-15T16:54:45.992Z,3.83
2022-10-15T16:57:14.790Z,3.17
2022-10-15T16:59:42.126Z,3.60
2022-10-15T17:02:10.029Z,3.30
2022-10-15T17:04:37.516Z,2.80
2022-10-15T17:07:04.901Z,3.80
2022-10-15T17:09:32.369Z,3.20
2022-10-15T17:11:59.630Z,2.70
2022-10-15T17:14:28.401Z,3.33
2022-10-15T17:16:56.087Z,3.53
2022-10-15T17:19:28.959Z,3.60
2022-10-15T17:21:59.249Z,2.93
2022-10-15T17:24:26.525Z,3.23
2022-10-15T17:26:54.748Z,3.13
2022-10-15T17:29:25.416Z,3.53
2022-10-15T17:31:55.214Z,2.93
2022-10-15T17:34:22.529Z,3.17
2022-10-15T17:36:49.889Z,3.20
2022-10-15T17:39:20.447Z,3.40
2022-10-15T17:41:49.640Z,3.17
2022-10-15T17:44:16.958Z,3.20
2022-10-15T17:46:44.320Z,3.37
2022-10-15T17:49:18.135Z,3.50
2022-10-15T17:51:46.407Z,3.70
2022-10-15T17:54:13.934Z,3.50
2022-10-15T17:56:41.243Z,3.90
2022-10-15T17:59:11.488Z,3.47
2022-10-15T18:01:58.817Z,3.50
2022-10-15T18:04:29.877Z,3.97
2022-10-15T18:06:57.324Z,3.53
2022-10-15T18:09:25.346Z,3.63
2022-10-15T18:11:52.650Z,4.30
2022-10-15T18:16:48.309Z,3.77
2022-10-15T18:19:15.573Z,4.20
2022-10-15T18:21:48.550Z,3.97
2022-10-15T18:24:21.376Z,3.80
2022-10-15T18:26:49.869Z,4.07
2022-10-15T18:29:17.203Z,4.23
2022-10-15T18:31:44.502Z,4.70
2022-10-15T18:34:11.754Z,4.57
2022-10-15T18:36:41.574Z,4.33
2022-10-15T18:39:11.235Z,4.90
2022-10-15T18:41:40.185Z,5.70
2022-10-15T18:44:15.823Z,4.20
2022-10-15T18:46:45.024Z,4.63
2022-10-15T18:49:15.346Z,4.40
2022-10-15T18:51:45.799Z,5.27
2022-10-15T18:54:15.363Z,4.30
2022-10-15T18:56:42.802Z,4.70
2022-10-15T18:59:10.089Z,5.43
2022-10-15T19:01:44.348Z,5.67
2022-10-15T19:04:14.990Z,5.43
2022-10-15T19:06:45.383Z,5.40
2022-10-15T19:09:17.598Z,5.00
2022-10-15T19:11:48.991Z,6.20
2022-10-15T19:14:16.836Z,6.00
2022-10-15T19:16:44.846Z,6.03
2022-10-15T19:19:16.091Z,5.53
2022-10-15T19:21:43.867Z,6.47
2022-10-15T19:24:11.421Z,6.47
2022-10-15T19:26:40.680Z,6.47
2022-10-15T19:29:07.991Z,5.97
2022-10-15T19:31:39.844Z,5.90
2022-10-15T19:34:07.802Z,5.53
2022-10-15T19:36:38.446Z,6.27
2022-10-15T19:39:08.426Z,6.70
2022-10-15T19:41:38.062Z,6.80
2022-10-15T19:44:08.239Z,7.50
2022-10-15T19:46:36.189Z,5.57
2022-10-15T19:49:05.035Z,6.60
2022-10-15T19:51:32.488Z,7.53
2022-10-15T19:54:00.209Z,6.13
2022-10-15T19:56:28.639Z,6.43
2022-10-15T19:58:57.853Z,6.57
2022-10-15T20:01:28.334Z,6.37
2022-10-15T20:04:01.657Z,9.33
2022-10-15T20:06:32.795Z,7.10
2022-10-15T20:09:00.470Z,6.87
2022-10-15T20:11:27.996Z,6.00
2022-10-15T20:13:55.356Z,6.43
2022-10-15T20:16:23.686Z,6.00
2022-10-15T20:18:52.959Z,8.87
2022-10-15T20:21:20.303Z,6.10
2022-10-15T20:23:47.965Z,5.80
2022-10-15T20:26:16.518Z,6.47
2022-10-15T20:28:46.701Z,5.37
2022-10-15T20:31:17.082Z,6.77
2022-10-15T20:33:45.015Z,5.60
2022-10-15T20:36:22.644Z,6.07
2022-10-15T20:38:51.567Z,6.60
2022-10-15T20:41:19.954Z,7.23
2022-10-15T20:43:53.809Z,7.90
2022-10-15T20:46:27.975Z,5.20
2022-10-15T20:48:58.513Z,6.23
2022-10-15T20:51:28.625Z,6.43
2022-10-15T20:53:59.040Z,6.87
2022-10-15T20:56:26.370Z,6.57
2022-10-15T20:58:53.915Z,5.47
2022-10-15T21:01:21.383Z,6.20
2022-10-15T21:03:48.642Z,7.30
2022-10-15T21:06:16.124Z,7.27
2022-10-15T21:08:44.949Z,6.97
2022-10-15T21:11:12.303Z,7.43
2022-10-15T21:13:39.654Z,8.07
2022-10-15T21:16:08.909Z,8.80
2022-10-15T21:18:37.391Z,7.90
2022-10-15T21:21:07.289Z,7.83
2022-10-15T21:23:35.466Z,7.03
2022-10-15T21:26:08.989Z,7.53
2022-10-15T21:28:37.243Z,7.60
2022-10-15T21:31:07.076Z,7.83
2022-10-15T21:33:36.091Z,8.57
2022-10-15T21:36:14.418Z,7.70
2022-10-15T21:38:42.610Z,8.17
2022-10-15T21:41:11.245Z,7.83
2022-10-15T21:43:38.696Z,7.73
2022-10-15T21:46:08.469Z,8.43
2022-10-15T21:48:36.726Z,8.47
2022-10-15T21:51:05.295Z,8.40
2022-10-15T21:53:33.657Z,8.07
2022-10-15T21:56:02.148Z,8.00
2022-10-15T21:58:30.912Z,8.33
2022-10-15T22:01:06.614Z,7.80
2022-10-15T22:03:33.898Z,7.93
2022-10-15T22:06:01.296Z,7.00
2022-10-15T22:08:29.102Z,7.57
2022-10-15T22:11:07.437Z,7.00
2022-10-15T22:13:36.305Z,7.83
2022-10-15T22:16:04.774Z,6.47
2022-10-15T22:18:32.074Z,7.90
2022-10-15T22:21:10.320Z,6.53
2022-10-15T22:23:37.659Z,6.03
2022-10-15T22:26:05.207Z,5.90
2022-10-15T22:28:32.534Z,6.43
2022-10-15T22:31:05.227Z,6.13
2022-10-15T22:33:33.801Z,5.93
2022-10-15T22:36:02.127Z,5.33
2022-10-15T22:38:29.522Z,4.70
2022-10-15T22:40:57.255Z,4.60
2022-10-15T22:43:25.206Z,4.47
2022-10-15T22:45:52.594Z,4.50
2022-10-15T22:48:21.345Z,4.23
2022-10-15T22:50:56.194Z,4.07
2022-10-15T22:53:24.055Z,3.30
2022-10-15T22:55:56.588Z,3.27
2022-10-15T22:58:24.430Z,3.73
2022-10-15T23:00:52.712Z,3.23
2022-10-15T23:03:22.356Z,3.23
2022-10-15T23:05:56.209Z,3.07
2022-10-15T23:08:23.832Z,2.50
2022-10-15T23:10:51.173Z,2.93
2022-10-15T23:13:18.485Z,2.77
2022-10-15T23:15:45.807Z,2.93
2022-10-15T23:18:13.180Z,2.40
2022-10-15T23:20:41.901Z,2.50
2022-10-15T23:23:09.149Z,2.67
2022-10-15T23:25:39.613Z,2.23
2022-10-15T23:28:06.954Z,2.67
2022-10-15T23:30:34.303Z,2.90
2022-10-15T23:33:02.866Z,2.03
2022-10-15T23:35:30.249Z,2.53
2022-10-15T23:37:58.889Z,2.07
2022-10-15T23:40:26.170Z,2.27
2022-10-15T23:42:54.564Z,2.10
2022-10-15T23:45:21.972Z,2.23
2022-10-15T23:47:49.327Z,1.80
2022-10-15T23:50:17.544Z,1.77
2022-10-15T23:52:44.842Z,1.90
2022-10-15T23:55:13.815Z,3.10
2022-10-15T23:57:41.028Z,3.10
